Time;durP1;ratioP1;P1;durP2;ratioP2;P2;SDS_P1;SDS_P2;PMS_P1;PMS_P2;Temp;Humidity;BMP_temperature;BMP_pressure;BME280_temperature;BME280_humidity;BME280_pressure;Samples;Min_cycle;Max_cycle;Signal;HPM_P1;HPM_P2
2021/11/09 00:01:52;;;;;;;8.20;2.97;;;;;;;6.85;56.33;102404.97;5019577;28;20029;-68
2021/11/09 00:04:21;;;;;;;5.25;2.35;;;;;;;6.98;55.25;102418.00;5015625;28;20038;-68
2021/11/09 00:06:55;;;;;;;11.90;3.00;;;;;;;6.88;55.10;102412.75;5001261;28;20060;-68
2021/11/09 00:09:20;;;;;;;8.85;3.15;;;;;;;6.80;55.07;102417.13;5018770;28;20034;-68
2021/11/09 00:11:46;;;;;;;7.25;3.42;;;;;;;6.69;55.35;102411.03;5004379;28;20029;-68
2021/11/09 00:14:12;;;;;;;6.10;3.15;;;;;;;6.65;55.29;102419.69;5001945;28;20439;-68
2021/11/09 00:16:38;;;;;;;4.47;2.88;;;;;;;6.61;55.09;102423.16;5004266;28;20033;-68
2021/11/09 00:19:04;;;;;;;5.43;3.00;;;;;;;6.56;55.35;102422.28;5001418;28;20041;-68
2021/11/09 00:21:30;;;;;;;7.05;3.38;;;;;;;6.58;55.37;102417.97;5005088;28;20038;-68
2021/11/09 00:23:59;;;;;;;9.43;3.30;;;;;;;6.63;55.92;102422.28;4999481;28;20072;-68
2021/11/09 00:26:25;;;;;;;10.98;3.35;;;;;;;6.70;55.80;102412.75;5002561;28;20084;-68
2021/11/09 00:28:50;;;;;;;8.25;3.53;;;;;;;6.77;55.90;102411.03;5003575;28;20040;-67
2021/11/09 00:31:16;;;;;;;8.88;4.22;;;;;;;6.82;55.81;102414.50;5019449;28;20038;-69
2021/11/09 00:33:41;;;;;;;9.05;4.35;;;;;;;6.88;55.48;102417.97;5003283;28;20046;-68
2021/11/09 00:36:07;;;;;;;9.23;5.72;;;;;;;6.98;55.55;102407.59;5004230;28;20040;-68
2021/11/09 00:38:33;;;;;;;14.85;6.25;;;;;;;7.00;55.58;102405.81;5015343;28;20804;-68
2021/11/09 00:40:59;;;;;;;12.05;6.75;;;;;;;7.06;55.98;102417.09;5018309;28;20065;-68
2021/11/09 00:43:25;;;;;;;13.77;6.70;;;;;;;7.15;55.55;102416.22;5018574;28;20511;-68
2021/11/09 00:45:51;;;;;;;14.55;7.38;;;;;;;7.12;55.58;102413.63;5017711;28;20036;-68
2021/11/09 00:48:18;;;;;;;13.65;8.40;;;;;;;7.19;55.63;102417.97;5001008;28;20048;-68
2021/11/09 00:50:45;;;;;;;16.52;7.28;;;;;;;7.15;55.88;102416.22;4994209;28;20133;-68
2021/11/09 00:53:17;;;;;;;13.32;6.82;;;;;;;7.29;55.60;102414.50;5001534;28;20056;-69
2021/11/09 00:55:44;;;;;;;16.03;8.27;;;;;;;7.28;55.43;102414.47;5004782;28;20032;-69
2021/11/09 00:58:10;;;;;;;13.65;6.90;;;;;;;7.30;55.48;102416.19;5003771;28;20036;-68
2021/11/09 01:00:37;;;;;;;15.00;7.20;;;;;;;7.35;55.54;102408.38;5004753;28;20068;-68
2021/11/09 01:03:05;;;;;;;12.27;5.80;;;;;;;7.27;55.55;102408.41;5004263;28;20050;-68
2021/11/09 01:05:33;;;;;;;13.18;6.70;;;;;;;7.38;55.33;102411.00;5002650;28;20486;-68
2021/11/09 01:08:02;;;;;;;15.23;6.45;;;;;;;6.81;57.08;102415.38;5001447;28;20042;-68
2021/11/09 01:10:31;;;;;;;15.13;6.65;;;;;;;7.22;55.82;102407.56;5002613;28;20038;-68
2021/11/09 01:12:58;;;;;;;14.30;5.68;;;;;;;7.04;56.37;102416.25;5019977;28;20053;-69
2021/11/09 01:15:26;;;;;;;9.50;5.50;;;;;;;7.19;56.10;102415.34;5004697;28;20619;-68
2021/11/09 01:17:53;;;;;;;9.75;5.10;;;;;;;7.36;55.73;102411.88;5004103;28;20038;-69
2021/11/09 01:20:22;;;;;;;7.50;4.50;;;;;;;7.44;55.47;102404.91;5003574;28;20069;-68
2021/11/09 01:22:51;;;;;;;10.63;4.97;;;;;;;7.45;55.76;102414.47;5017763;28;20050;-68
2021/11/09 01:25:17;;;;;;;11.40;4.72;;;;;;;7.42;55.47;102409.25;5002635;28;20557;-70
2021/11/09 01:27:43;;;;;;;5.25;4.00;;;;;;;7.46;55.40;102410.97;5003618;28;20061;-69
2021/11/09 01:30:10;;;;;;;8.48;4.43;;;;;;;7.47;55.31;102407.53;4997486;28;20029;-69
2021/11/09 01:32:35;;;;;;;9.55;4.00;;;;;;;7.45;55.16;102394.50;5003160;28;20059;-68
2021/11/09 01:35:03;;;;;;;8.57;3.95;;;;;;;7.47;55.28;102394.50;5003860;28;20442;-68
2021/11/09 01:37:28;;;;;;;8.82;3.47;;;;;;;7.31;56.02;102404.94;5014470;28;20046;-68
2021/11/09 01:39:54;;;;;;;8.77;3.10;;;;;;;7.44;55.83;102397.97;5009131;28;20026;-68
2021/11/09 01:42:20;;;;;;;8.65;2.90;;;;;;;7.60;55.20;102404.06;4990657;28;20553;-67
2021/11/09 01:44:45;;;;;;;4.75;2.63;;;;;;;7.65;55.16;102407.50;5008090;28;20033;-69
2021/11/09 01:47:11;;;;;;;9.85;3.95;;;;;;;7.65;55.11;102397.09;5007578;28;20041;-67
2021/11/09 01:49:37;;;;;;;8.02;2.67;;;;;;;7.65;54.96;102401.44;4989480;28;20038;-68
2021/11/09 01:52:03;;;;;;;6.03;2.28;;;;;;;7.61;54.76;102391.91;5006544;28;20042;-68
2021/11/09 01:54:29;;;;;;;8.77;3.22;;;;;;;7.53;55.05;102394.47;5007350;28;20021;-68
2021/11/09 01:56:55;;;;;;;6.35;2.70;;;;;;;7.32;55.28;102401.47;5006586;28;20120;-68
2021/11/09 01:59:20;;;;;;;4.10;1.90;;;;;;;7.33;55.05;102394.53;5004816;28;20037;-68
2021/11/09 02:01:46;;;;;;;4.07;1.70;;;;;;;7.28;54.65;102404.94;5020806;28;20703;-68
2021/11/09 02:04:13;;;;;;;6.85;2.38;;;;;;;7.18;54.63;102405.84;5021180;28;20435;-68
2021/11/09 02:06:38;;;;;;;4.03;1.70;;;;;;;7.02;54.80;102417.09;5006025;28;20056;-68
2021/11/09 02:09:12;;;;;;;3.25;1.27;;;;;;;7.02;54.99;102417.09;5004943;28;20112;-68
2021/11/09 02:11:37;;;;;;;5.05;1.48;;;;;;;6.95;54.86;102415.38;5006662;28;20208;-68
2021/11/09 02:14:03;;;;;;;7.18;1.45;;;;;;;6.89;54.80;102411.91;5007188;28;20121;-68
2021/11/09 02:16:30;;;;;;;4.57;1.75;;;;;;;6.83;54.75;102408.44;5007984;28;20033;-68
2021/11/09 02:18:56;;;;;;;6.80;2.00;;;;;;;6.71;54.76;102409.31;5002499;28;20042;-70
2021/11/09 02:21:21;;;;;;;3.75;1.45;;;;;;;6.71;54.57;102409.31;5005178;28;20107;-70
2021/11/09 02:23:48;;;;;;;12.23;2.30;;;;;;;6.68;54.84;102419.69;5006583;28;20092;-68
2021/11/09 02:26:18;;;;;;;4.20;1.95;;;;;;;6.64;54.72;102412.75;5004819;28;20447;-68
2021/11/09 02:28:44;;;;;;;2.80;1.83;;;;;;;6.62;54.79;102412.78;5003777;28;20030;-68
2021/11/09 02:31:11;;;;;;;2.35;1.10;;;;;;;6.59;54.54;102414.47;5005459;28;20049;-69
2021/11/09 02:33:37;;;;;;;5.63;1.65;;;;;;;6.50;54.33;102405.81;5006105;28;20056;-68
2021/11/09 02:36:03;;;;;;;6.50;1.75;;;;;;;6.44;54.50;102400.63;4989388;28;20029;-68
2021/11/09 02:38:29;;;;;;;7.28;1.33;;;;;;;6.30;54.59;102394.53;5020278;28;20042;-68
2021/11/09 02:40:58;;;;;;;2.70;1.23;;;;;;;6.37;54.34;102401.44;5006827;28;20037;-69
2021/11/09 02:43:25;;;;;;;3.25;1.15;;;;;;;6.33;54.21;102404.94;5014269;28;20504;-68
2021/11/09 02:56:29;;;;;;;5.07;1.40;;;;;;;6.19;54.99;102378.88;5006559;28;21056;-68
2021/11/09 03:01:46;;;;;;;4.07;1.42;;;;;;;6.24;54.58;102378.91;5004157;28;20040;-68
2021/11/09 03:06:40;;;;;;;5.05;1.35;;;;;;;6.26;54.63;102384.94;5005166;28;20642;-70
2021/11/09 03:09:20;;;;;;;4.15;1.60;;;;;;;6.22;54.50;102386.69;5004935;28;20045;-68
2021/11/09 03:11:53;;;;;;;2.95;1.77;;;;;;;6.20;54.55;102384.97;5021478;28;20030;-69
2021/11/09 03:14:20;;;;;;;3.05;1.48;;;;;;;6.17;54.69;102377.13;5020511;28;20137;-68
2021/11/09 03:16:45;;;;;;;7.93;1.88;;;;;;;6.08;54.77;102381.47;5005261;28;20069;-68
2021/11/09 03:19:32;;;;;;;8.57;1.40;;;;;;;6.05;54.95;102376.25;5005556;28;20403;-68
2021/11/09 03:46:45;;;;;;;9.88;3.50;;;;;;;5.91;55.85;102383.13;5002657;28;20045;-68
2021/11/09 03:49:11;;;;;;;8.05;3.35;;;;;;;5.90;55.43;102381.38;5006575;28;20552;-68
2021/11/09 03:51:37;;;;;;;5.05;3.08;;;;;;;5.91;55.43;102392.66;5019985;28;20091;-68
2021/11/09 03:54:09;;;;;;;7.75;2.90;;;;;;;5.88;55.85;102377.91;5005883;28;20026;-68
2021/11/09 03:56:43;;;;;;;9.15;3.45;;;;;;;5.86;55.46;102383.13;5004040;28;20487;-69
2021/11/09 03:59:15;;;;;;;6.22;3.10;;;;;;;5.84;55.47;102386.56;5022866;28;20033;-68
2021/11/09 04:02:27;;;;;;;11.07;3.85;;;;;;;5.80;55.84;102383.09;5003382;28;20491;-68
2021/11/09 04:04:49;;;;;;;9.68;3.97;;;;;;;5.84;56.03;102379.66;5012150;28;20054;-67
2021/11/09 04:15:17;;;;;;;13.27;5.47;;;;;;;5.81;56.35;102381.34;5004669;28;20504;-68
2021/11/09 04:28:19;;;;;;;18.70;5.65;;;;;;;5.84;56.56;102412.53;5001679;28;20121;-69
2021/11/09 04:49:57;;;;;;;12.98;5.03;;;;;;;5.63;56.04;102403.75;5005768;28;20116;-68
2021/11/09 05:03:03;;;;;;;16.30;6.82;;;;;;;5.61;55.70;102410.69;5003264;28;20049;-67
2021/11/09 05:08:24;;;;;;;20.95;6.53;;;;;;;5.63;56.23;102408.94;5003901;28;20041;-68
2021/11/09 05:10:52;;;;;;;16.52;6.10;;;;;;;5.66;56.49;102421.09;5003504;28;20058;-68
2021/11/09 05:13:17;;;;;;;23.10;7.68;;;;;;;5.23;58.31;102438.94;5006400;28;20428;-68
2021/11/09 05:15:43;;;;;;;20.50;7.43;;;;;;;5.61;56.57;102439.22;5021661;28;20093;-68
2021/11/09 05:18:09;;;;;;;18.33;6.38;;;;;;;5.63;56.23;102444.41;5023257;28;20241;-68
2021/11/09 05:20:35;;;;;;;14.25;6.15;;;;;;;5.62;56.11;102433.16;5024239;28;20033;-68
2021/11/09 05:23:00;;;;;;;15.90;5.25;;;;;;;5.63;55.83;102440.06;5022642;28;20085;-68
2021/11/09 05:25:27;;;;;;;23.20;6.85;;;;;;;5.57;55.90;102439.16;5005839;28;20037;-68
2021/11/09 05:27:53;;;;;;;17.25;6.80;;;;;;;5.53;56.06;102443.47;5008078;28;20155;-68
2021/11/09 05:30:18;;;;;;;10.60;5.68;;;;;;;5.30;56.75;102440.75;5022542;28;20112;-70
2021/11/09 05:32:44;;;;;;;16.23;6.68;;;;;;;5.42;56.55;102432.19;5023243;28;20046;-68
2021/11/09 05:35:10;;;;;;;21.63;7.00;;;;;;;5.53;56.25;102435.69;5007754;28;20680;-68
2021/11/09 05:37:43;;;;;;;13.55;5.93;;;;;;;5.52;55.83;102436.53;5007363;28;20088;-68
2021/11/09 05:40:09;;;;;;;21.20;6.32;;;;;;;5.50;56.70;102421.84;5022510;28;20033;-69
2021/11/09 05:42:35;;;;;;;11.48;5.70;;;;;;;5.52;56.21;102431.34;5021703;28;20058;-68
2021/11/09 05:45:01;;;;;;;14.73;6.15;;;;;;;5.49;56.49;102428.75;5023172;28;20037;-68
2021/11/09 05:47:28;;;;;;;13.52;6.25;;;;;;;5.46;56.06;102426.16;5021781;28;20038;-68
2021/11/09 05:49:54;;;;;;;17.65;6.05;;;;;;;5.46;56.46;102413.19;5006938;28;20388;-68
2021/11/09 05:52:20;;;;;;;17.48;6.55;;;;;;;5.48;56.46;102416.66;5005136;28;20194;-68
2021/11/09 05:54:46;;;;;;;14.77;6.18;;;;;;;5.49;56.09;102409.75;5008597;28;20037;-68
2021/11/09 05:57:11;;;;;;;16.58;6.38;;;;;;;5.47;56.78;102412.31;5005024;28;20046;-68
2021/11/09 05:59:37;;;;;;;19.95;6.40;;;;;;;5.55;56.14;102409.78;5006112;28;20112;-68
2021/11/09 06:02:03;;;;;;;12.63;5.60;;;;;;;5.46;56.04;102416.63;5019657;28;20630;-68
2021/11/09 06:04:28;;;;;;;17.00;6.60;;;;;;;5.23;56.86;102424.28;5022714;28;20476;-68
2021/11/09 06:06:54;;;;;;;22.15;7.63;;;;;;;5.06;57.81;102425.88;5017684;28;20046;-69
2021/11/09 06:09:20;;;;;;;24.42;6.93;;;;;;;5.10;57.34;102431.94;5005740;28;20045;-68
2021/11/09 06:11:46;;;;;;;19.95;7.10;;;;;;;5.17;57.75;102434.59;5017246;28;20049;-68
2021/11/09 06:14:11;;;;;;;13.30;6.85;;;;;;;5.25;57.51;102440.69;5021481;28;20030;-68
2021/11/09 06:16:37;;;;;;;18.95;6.50;;;;;;;5.42;56.68;102438.22;5006811;28;20042;-69
2021/11/09 06:19:05;;;;;;;16.27;6.43;;;;;;;5.41;55.75;102444.28;5018891;28;20483;-68
2021/11/09 06:21:31;;;;;;;12.48;5.72;;;;;;;5.25;56.84;102451.06;5006222;28;20032;-70
2021/11/09 06:23:57;;;;;;;19.25;7.53;;;;;;;5.36;56.77;102445.09;5016932;28;20041;-69
2021/11/09 06:26:24;;;;;;;17.77;5.63;;;;;;;5.29;56.48;102443.31;5003735;28;20408;-68
2021/11/09 06:28:52;;;;;;;12.57;6.85;;;;;;;5.39;56.07;102451.19;5017328;28;20585;-68
2021/11/09 06:31:17;;;;;;;12.45;5.97;;;;;;;5.39;56.26;102458.06;5018833;28;20088;-69
2021/11/09 06:33:43;;;;;;;20.10;6.97;;;;;;;5.38;56.64;102453.75;5005804;28;20049;-68
2021/11/09 06:36:09;;;;;;;18.55;6.40;;;;;;;5.50;56.11;102448.63;5006836;28;20045;-68
2021/11/09 06:38:35;;;;;;;12.95;6.35;;;;;;;5.49;56.66;102446.06;5005684;28;20072;-68
2021/11/09 06:41:00;;;;;;;18.63;6.82;;;;;;;5.30;56.85;102437.25;5006433;28;20056;-69
2021/11/09 06:43:26;;;;;;;23.90;6.40;;;;;;;5.48;56.63;102449.47;5014189;28;20135;-68
2021/11/09 06:45:56;;;;;;;13.93;5.72;;;;;;;5.45;56.90;102445.16;5004029;28;20042;-68
2021/11/09 06:48:23;;;;;;;18.38;6.38;;;;;;;5.69;56.17;102451.38;5018868;28;20042;-68
2021/11/09 06:50:49;;;;;;;26.48;6.85;;;;;;;5.10;57.93;102458.75;5007359;28;20028;-68
2021/11/09 06:53:14;;;;;;;23.13;6.95;;;;;;;5.22;57.77;102463.16;5018787;28;20146;-68
2021/11/09 06:55:40;;;;;;;21.75;7.40;;;;;;;5.42;57.76;102476.25;5005526;28;20037;-68
2021/11/09 06:58:05;;;;;;;28.40;7.90;;;;;;;5.37;57.44;102477.94;5005046;28;20037;-69
2021/11/09 07:00:31;;;;;;;19.02;7.25;;;;;;;5.77;56.93;102465.22;5007363;28;20049;-68
2021/11/09 07:02:56;;;;;;;22.65;5.68;;;;;;;5.98;55.93;102467.94;5003892;28;20213;-68
2021/11/09 07:05:22;;;;;;;19.85;6.45;;;;;;;5.99;56.21;102461.88;5007012;28;20129;-68
2021/11/09 07:07:48;;;;;;;21.83;6.43;;;;;;;5.74;56.82;102467.81;5004941;28;20050;-68
2021/11/09 07:10:14;;;;;;;13.75;5.72;;;;;;;5.81;56.82;102474.75;5006194;28;20038;-69
2021/11/09 07:12:40;;;;;;;19.17;5.38;;;;;;;5.99;55.60;102474.84;5005106;28;20060;-68
2021/11/09 07:15:08;;;;;;;15.73;6.35;;;;;;;5.66;56.67;102471.22;4995525;28;20034;-69
2021/11/09 07:17:34;;;;;;;18.30;5.10;;;;;;;5.43;57.20;102480.56;5016325;28;20056;-69
2021/11/09 07:20:00;;;;;;;12.25;5.50;;;;;;;5.98;56.00;102477.47;5005574;28;20439;-69
2021/11/09 07:22:26;;;;;;;13.48;5.50;;;;;;;6.10;54.94;102474.91;5003014;28;20056;-68
2021/11/09 07:24:52;;;;;;;16.10;5.63;;;;;;;5.70;56.30;102476.44;5005634;28;20030;-68
2021/11/09 07:27:17;;;;;;;18.45;6.00;;;;;;;5.51;55.86;102494.47;5002888;28;20045;-68
2021/11/09 07:29:50;;;;;;;17.27;5.97;;;;;;;6.10;54.57;102487.88;4987228;28;20718;-68
2021/11/09 07:32:18;;;;;;;13.63;5.60;;;;;;;6.18;54.01;102491.41;5016976;28;20133;-69
2021/11/09 07:34:44;;;;;;;28.20;7.47;;;;;;;6.26;53.62;102500.09;4999671;28;20041;-68
2021/11/09 07:37:10;;;;;;;9.73;5.07;;;;;;;6.37;53.69;102492.34;5008752;28;20450;-68
2021/11/09 07:39:37;;;;;;;11.73;4.90;;;;;;;6.43;53.11;102510.56;5005777;28;20040;-68
2021/11/09 07:42:04;;;;;;;14.35;5.93;;;;;;;6.05;53.23;102498.25;5018575;28;20042;-69
2021/11/09 07:44:29;;;;;;;21.45;6.00;;;;;;;6.42;53.08;102503.66;5005541;28;20030;-68
2021/11/09 07:46:55;;;;;;;26.60;6.03;;;;;;;6.47;52.88;102514.91;5017256;28;20038;-68
2021/11/09 07:49:22;;;;;;;18.58;6.63;;;;;;;7.00;52.41;102515.00;5005641;28;20431;-69
2021/11/09 07:51:48;;;;;;;16.27;5.72;;;;;;;7.77;50.99;102512.44;5004552;28;20041;-68
2021/11/09 07:54:14;;;;;;;16.17;5.40;;;;;;;8.60;48.61;102509.50;5004474;28;20506;-68
2021/11/09 07:56:40;;;;;;;15.90;6.03;;;;;;;9.33;46.49;102508.16;5003127;28;20034;-69
2021/11/09 08:01:39;;;;;;;21.20;4.68;;;;;;;10.33;43.23;102513.22;5005123;22;20139;-66
2021/11/09 08:04:10;;;;;;;18.98;5.43;;;;;;;10.43;43.18;102511.31;4983172;28;20049;-66
2021/11/09 08:06:48;;;;;;;19.85;5.40;;;;;;;11.73;41.51;102508.41;4973913;28;20582;-67
2021/11/09 08:11:50;;;;;;;15.50;4.32;;;;;;;12.34;38.57;102508.97;4965325;28;20051;-66
2021/11/09 08:14:16;;;;;;;17.38;4.30;;;;;;;12.45;37.12;102504.34;4968430;28;20121;-66
2021/11/09 08:16:42;;;;;;;10.98;3.42;;;;;;;11.12;39.27;102519.94;4966999;28;20468;-66
2021/11/09 08:19:08;;;;;;;18.40;5.22;;;;;;;10.82;41.93;102504.72;4966323;28;20120;-65
2021/11/09 08:21:35;;;;;;;17.15;5.70;;;;;;;10.66;41.62;102502.28;4967315;28;20117;-65
2021/11/09 08:24:01;;;;;;;28.65;5.97;;;;;;;9.91;42.53;102498.91;4969938;28;20046;-66
2021/11/09 08:26:28;;;;;;;17.50;4.63;;;;;;;9.79;44.61;102506.00;4967258;28;20066;-66
2021/11/09 08:28:55;;;;;;;16.63;5.18;;;;;;;8.29;46.71;102513.16;4968026;28;20047;-65
2021/11/09 08:31:24;;;;;;;17.80;5.55;;;;;;;9.07;45.74;102508.38;4967487;28;20062;-66
2021/11/09 08:33:51;;;;;;;21.13;5.13;;;;;;;9.39;44.72;102508.97;4969779;28;20046;-66
2021/11/09 08:36:23;;;;;;;22.33;5.78;;;;;;;8.66;46.35;102514.69;4981284;28;20045;-66
2021/11/09 08:38:50;;;;;;;23.67;4.82;;;;;;;7.69;48.53;102523.72;4963423;28;20038;-65
2021/11/09 08:41:17;;;;;;;22.63;5.07;;;;;;;7.96;48.46;102529.75;4970199;28;20046;-66
2021/11/09 08:43:56;;;;;;;13.45;4.78;;;;;;;8.08;47.42;102521.03;4967126;28;20472;-66
2021/11/09 08:46:24;;;;;;;19.85;5.90;;;;;;;7.53;49.28;102516.75;4967778;28;20045;-65
2021/11/09 08:48:52;;;;;;;20.00;4.75;;;;;;;7.10;50.34;102522.84;4967321;28;20038;-66
2021/11/09 08:51:20;;;;;;;15.73;5.53;;;;;;;7.86;48.63;102521.09;4986133;28;20050;-65
2021/11/09 09:05:06;;;;;;;15.63;5.15;;;;;;;7.88;47.44;102510.66;4981948;28;20062;-66
2021/11/09 09:07:34;;;;;;;17.88;4.53;;;;;;;8.05;48.15;102511.50;4966922;28;20058;-66
2021/11/09 09:09:59;;;;;;;21.65;5.30;;;;;;;7.98;48.22;102520.22;4966147;28;20081;-66
2021/11/09 09:12:26;;;;;;;14.35;4.43;;;;;;;8.12;47.72;102513.19;4963538;28;20062;-65
2021/11/09 09:14:53;;;;;;;12.52;5.15;;;;;;;6.32;51.52;102514.84;4967082;28;20542;-65
2021/11/09 09:17:19;;;;;;;19.20;4.93;;;;;;;7.60;49.11;102522.84;4973318;28;20110;-65
2021/11/09 09:19:52;;;;;;;21.23;5.60;;;;;;;7.62;48.69;102521.97;4971683;28;20069;-66
2021/11/09 09:22:21;;;;;;;19.38;5.97;;;;;;;7.36;49.61;102519.41;4974200;28;20039;-65
2021/11/09 09:30:18;;;;;;;18.05;5.13;;;;;;;8.01;47.99;102524.53;4965684;28;20556;-66
2021/11/09 09:56:58;;;;;;;19.05;6.07;;;;;;;7.88;48.45;102502.88;4965461;28;20039;-66
2021/11/09 09:59:28;;;;;;;18.27;6.78;;;;;;;8.80;46.16;102502.47;4967187;28;20419;-65
2021/11/09 10:02:12;;;;;;;25.30;6.63;;;;;;;8.81;46.25;102506.81;4969585;28;20427;-65
2021/11/09 10:04:43;;;;;;;19.70;6.28;;;;;;;7.48;48.94;102511.56;4963931;28;20728;-65
2021/11/09 10:07:11;;;;;;;20.30;6.75;;;;;;;8.77;46.80;102505.09;4972048;28;20050;-67
2021/11/09 10:09:44;;;;;;;22.27;7.13;;;;;;;9.17;45.46;102497.00;4968906;28;20026;-67
2021/11/09 10:12:36;;;;;;;18.35;7.22;;;;;;;8.92;45.54;102507.59;4971118;28;20359;-66
2021/11/09 10:15:20;;;;;;;15.90;6.57;;;;;;;8.84;45.19;102503.31;4966459;28;20109;-67
2021/11/09 10:17:53;;;;;;;21.65;6.38;;;;;;;8.95;45.28;102512.78;4972186;28;20137;-67
2021/11/09 10:20:25;;;;;;;20.70;7.50;;;;;;;8.98;46.26;102504.97;4970032;28;20279;-66
2021/11/09 10:22:57;;;;;;;17.30;7.28;;;;;;;9.64;44.13;102511.34;4965417;28;20121;-66
2021/11/09 10:25:24;;;;;;;16.70;6.55;;;;;;;8.59;45.79;102497.38;4971782;28;20043;-70
2021/11/09 10:27:53;;;;;;;20.10;6.35;;;;;;;9.84;43.93;102498.13;4954979;28;20050;-65
2021/11/09 10:30:23;;;;;;;17.45;6.70;;;;;;;9.88;43.53;102496.31;4975743;28;20038;-65
2021/11/09 10:32:49;;;;;;;18.27;6.75;;;;;;;8.98;44.50;102504.06;4970680;28;20070;-68
2021/11/09 10:35:17;;;;;;;21.35;8.73;;;;;;;10.52;42.55;102497.28;4970826;28;20042;-66
2021/11/09 10:37:54;;;;;;;20.98;7.65;;;;;;;10.02;42.02;102494.44;4969014;28;20055;-66
2021/11/09 10:40:33;;;;;;;17.90;7.20;;;;;;;10.58;41.46;102490.19;4970301;28;20035;-66
2021/11/09 10:43:02;;;;;;;13.40;5.95;;;;;;;10.50;42.31;102497.28;4970447;28;20078;-66
2021/11/09 10:45:29;;;;;;;23.08;6.40;;;;;;;10.52;41.62;102492.91;4984119;28;20095;-65
2021/11/09 10:47:58;;;;;;;14.35;6.38;;;;;;;10.93;41.41;102501.03;4968548;28;20411;-65
2021/11/09 10:50:27;;;;;;;19.25;6.03;;;;;;;9.96;42.31;102495.34;4970626;28;20062;-66
2021/11/09 10:55:51;;;;;;;22.90;6.18;;;;;;;11.36;39.82;102488.13;4971501;28;20543;-66
2021/11/09 10:58:53;;;;;;;20.48;7.18;;;;;;;10.99;39.93;102500.97;4968191;28;20038;-66
2021/11/09 11:06:31;;;;;;;17.65;5.50;;;;;;;11.14;39.79;102499.84;4971406;28;20049;-66
2021/11/09 11:09:18;;;;;;;18.92;5.40;;;;;;;10.71;39.73;102490.03;4966879;28;20077;-66
2021/11/09 11:11:48;;;;;;;23.70;6.82;;;;;;;10.95;40.12;102489.69;4968327;28;20031;-66
2021/11/09 11:14:16;;;;;;;21.35;5.03;;;;;;;11.37;39.67;102487.22;4969317;28;20040;-65
2021/11/09 11:17:11;;;;;;;13.35;5.75;;;;;;;12.44;37.80;102475.53;4970594;28;20039;-66
2021/11/09 11:19:40;;;;;;;21.38;5.90;;;;;;;11.01;39.26;102484.34;4967242;28;20073;-67
2021/11/09 11:22:08;;;;;;;12.88;5.82;;;;;;;11.87;38.73;102488.09;4966995;28;20049;-66
2021/11/09 11:24:35;;;;;;;15.38;4.38;;;;;;;12.29;37.69;102476.75;4967156;28;20034;-68
2021/11/09 11:27:01;;;;;;;16.13;5.40;;;;;;;11.13;39.23;102488.53;4971954;28;20034;-66
2021/11/09 11:29:32;;;;;;;17.25;6.07;;;;;;;11.87;38.57;102493.31;4965363;28;20507;-66
2021/11/09 11:32:00;;;;;;;17.20;5.18;;;;;;;12.26;38.42;102485.50;4969117;28;20062;-66
2021/11/09 11:34:26;;;;;;;18.20;5.15;;;;;;;11.40;39.51;102487.19;4969286;28;20527;-67
2021/11/09 11:36:52;;;;;;;13.98;4.70;;;;;;;11.02;39.39;102480.84;4969335;28;20104;-66
2021/11/09 11:39:25;;;;;;;22.75;5.43;;;;;;;11.71;39.63;102473.53;4968475;28;20582;-66
2021/11/09 11:41:54;;;;;;;;;;;;;;;11.09;40.15;102480.75;4970660;28;20433;-66
2021/11/09 11:44:25;;;;;;;17.05;5.03;;;;;;;10.53;41.57;102478.09;4967020;28;19918;-67
2021/11/09 11:46:53;;;;;;;17.42;5.35;;;;;;;10.09;42.12;102485.63;4968428;28;20065;-66
2021/11/09 11:49:31;;;;;;;21.30;4.93;;;;;;;10.06;42.74;102480.44;4967056;28;20043;-67
2021/11/09 11:52:03;;;;;;;22.52;5.57;;;;;;;10.35;42.40;102467.00;4969811;28;20049;-67
2021/11/09 11:54:40;;;;;;;;;;;;;;;10.26;41.62;102467.13;4968598;28;20528;-66
2021/11/09 11:57:06;;;;;;;23.30;5.03;;;;;;;10.82;40.40;102480.31;4965959;28;19926;-67
2021/11/09 11:59:32;;;;;;;14.40;5.32;;;;;;;10.44;40.67;102471.25;4971231;28;20050;-67
2021/11/09 12:02:05;;;;;;;27.98;5.05;;;;;;;10.98;39.86;102468.69;4966134;28;20047;-67
2021/11/09 12:04:52;;;;;;;15.43;6.00;;;;;;;9.66;42.46;102466.97;4964315;28;20081;-66
2021/11/09 12:07:20;;;;;;;21.67;6.70;;;;;;;9.34;43.36;102463.78;4968172;28;20500;-66
2021/11/09 12:09:49;;;;;;;19.52;5.18;;;;;;;9.54;43.20;102450.53;4969988;28;20027;-67
2021/11/09 12:12:17;;;;;;;16.90;4.82;;;;;;;9.47;43.73;102453.22;4967783;28;20090;-68
2021/11/09 12:14:56;;;;;;;17.80;5.70;;;;;;;9.17;44.23;102456.09;4982268;28;20046;-66
2021/11/09 12:17:31;;;;;;;21.25;5.68;;;;;;;9.23;44.44;102455.19;4964441;28;20050;-66
2021/11/09 12:19:57;;;;;;;14.27;5.80;;;;;;;9.09;45.18;102454.44;4969868;28;20097;-66
2021/11/09 12:22:36;;;;;;;17.52;4.82;;;;;;;9.38;44.71;102441.97;4966356;28;20451;-66
2021/11/09 12:25:01;;;;;;;17.25;4.95;;;;;;;9.76;43.47;102451.16;4971563;28;20027;-66
2021/11/09 12:27:49;;;;;;;13.93;5.35;;;;;;;9.46;44.26;102447.13;4967143;28;20065;-64
2021/11/09 12:33:05;;;;;;;26.02;6.45;;;;;;;9.46;44.05;102446.28;4967984;28;20342;-65
2021/11/09 12:35:31;;;;;;;14.93;5.63;;;;;;;9.59;44.23;102448.75;4983393;28;20038;-65
2021/11/09 12:37:59;;;;;;;20.02;6.50;;;;;;;9.49;44.81;102446.25;4965584;28;20045;-65
2021/11/09 12:40:33;;;;;;;20.25;5.03;;;;;;;9.53;44.20;102448.81;4967507;28;20492;-67
2021/11/09 12:43:06;;;;;;;18.30;6.13;;;;;;;9.35;45.34;102455.06;4970178;28;20050;-65
2021/11/09 12:45:32;;;;;;;15.48;5.53;;;;;;;9.43;44.63;102446.28;4971407;28;20038;-65
2021/11/09 12:48:06;;;;;;;26.35;6.55;;;;;;;9.01;46.50;102451.03;4966238;28;20400;-65
2021/11/09 12:50:35;;;;;;;21.77;7.05;;;;;;;9.27;45.97;102459.50;4970911;28;20038;-66
2021/11/09 12:53:11;;;;;;;22.52;6.82;;;;;;;9.93;45.23;102452.75;4964989;28;20042;-65
2021/11/09 12:55:38;;;;;;;17.58;6.13;;;;;;;10.07;44.76;102450.81;4964936;28;20454;-66
2021/11/09 12:58:25;;;;;;;21.95;5.90;;;;;;;8.92;47.19;102450.25;4965266;28;20054;-65
2021/11/09 13:01:19;;;;;;;22.20;6.47;;;;;;;8.84;47.57;102459.84;4967094;28;20034;-67
2021/11/09 13:03:56;;;;;;;20.23;5.80;;;;;;;9.57;45.91;102452.25;4967684;28;20086;-65
2021/11/09 13:06:40;;;;;;;18.23;6.05;;;;;;;10.20;44.34;102449.78;4969721;28;20043;-65
2021/11/09 13:09:17;;;;;;;12.18;5.63;;;;;;;10.61;43.24;102452.69;4962784;28;20075;-65
2021/11/09 13:11:48;;;;;;;15.75;7.00;;;;;;;10.70;42.99;102451.69;4968652;28;20062;-65
2021/11/09 13:14:14;;;;;;;20.98;6.95;;;;;;;10.79;43.17;102451.53;4967891;28;20039;-66
2021/11/09 13:16:42;;;;;;;22.55;6.55;;;;;;;10.69;43.13;102450.81;4965348;28;20159;-67
2021/11/09 13:19:08;;;;;;;17.98;5.40;;;;;;;10.04;45.01;102450.00;4963426;28;20352;-65
2021/11/09 13:21:35;;;;;;;20.60;5.50;;;;;;;10.19;45.09;102447.16;4965454;28;20046;-65
2021/11/09 13:24:02;;;;;;;23.67;8.40;;;;;;;10.81;43.77;102442.81;4963067;28;20035;-65
2021/11/09 13:26:27;;;;;;;28.15;6.60;;;;;;;10.21;44.88;102448.91;4967172;28;20046;-66
2021/11/09 13:28:53;;;;;;;17.10;5.97;;;;;;;9.92;45.37;102445.78;4967191;28;20057;-65
2021/11/09 13:31:19;;;;;;;18.70;5.72;;;;;;;9.66;45.92;102444.31;4966093;28;20058;-66
2021/11/09 13:33:46;;;;;;;19.25;5.60;;;;;;;9.97;45.96;102439.63;4968655;28;20464;-65
2021/11/09 13:36:14;;;;;;;22.70;6.68;;;;;;;9.71;46.32;102439.03;4969225;28;20096;-65
2021/11/09 13:38:42;;;;;;;11.30;5.18;;;;;;;9.86;46.25;102445.88;4968451;28;20043;-65
2021/11/09 13:41:22;;;;;;;14.68;5.47;;;;;;;9.67;46.88;102447.78;4969657;28;20038;-67
2021/11/09 13:43:53;;;;;;;15.35;4.65;;;;;;;9.51;46.96;102441.88;4973116;28;20463;-65
2021/11/09 13:46:20;;;;;;;18.23;5.97;;;;;;;9.45;47.10;102445.41;4968285;28;20405;-65
2021/11/09 13:48:51;;;;;;;10.13;3.95;;;;;;;8.50;49.48;102444.41;4968310;28;22911;-65
2021/11/09 13:51:24;;;;;;;17.88;5.97;;;;;;;10.00;46.49;102443.94;4969435;28;20117;-65
2021/11/09 13:53:55;;;;;;;18.60;4.97;;;;;;;9.74;46.72;102439.00;4964390;28;20152;-68
2021/11/09 13:56:23;;;;;;;11.10;4.72;;;;;;;9.59;47.30;102442.66;4968273;28;20038;-65
2021/11/09 13:59:17;;;;;;;9.65;4.00;;;;;;;9.28;48.41;102448.19;4971553;28;20154;-65
2021/11/09 14:15:46;;;;;;;17.45;5.30;;;;;;;8.31;51.12;102445.38;4971121;28;20403;-66
2021/11/09 14:18:21;;;;;;;17.23;4.70;;;;;;;9.59;48.05;102440.06;4970891;28;20039;-66